createdAt,value
2019-03-01T00:00:26.110Z,1.00
2019-03-01T00:02:54.615Z,1.00
2019-03-01T00:05:26.138Z,1.00
2019-03-01T00:08:15.360Z,9.80
2019-03-01T00:11:06.458Z,17.90
2019-03-01T00:13:43.886Z,30.10
2019-03-01T00:16:30.527Z,40.90
2019-03-01T00:19:04.716Z,51.60
2019-03-01T00:21:36.261Z,61.00
2019-03-01T00:24:23.084Z,55.60
2019-03-01T00:27:00.091Z,58.30
2019-03-01T00:29:34.412Z,62.60
2019-03-01T00:32:17.762Z,68.30
2019-03-01T00:34:54.997Z,69.40
2019-03-01T00:37:35.643Z,68.10
2019-03-01T00:40:09.810Z,58.40
2019-03-01T00:42:49.998Z,56.60
2019-03-01T00:45:18.447Z,69.20
2019-03-01T00:47:46.890Z,70.50
2019-03-01T00:50:15.418Z,78.30
2019-03-01T00:52:43.846Z,73.10
2019-03-01T00:55:12.451Z,64.30
2019-03-01T00:57:40.963Z,67.70
2019-03-01T01:00:12.475Z,69.00
2019-03-01T01:02:40.931Z,71.90
2019-03-01T01:05:09.367Z,65.40
2019-03-01T01:07:37.836Z,65.70
2019-03-01T01:10:06.416Z,65.10
2019-03-01T01:12:34.854Z,66.80
2019-03-01T01:15:03.304Z,71.60
2019-03-01T01:17:31.753Z,57.30
2019-03-01T01:20:00.298Z,68.90
2019-03-01T01:22:28.720Z,63.20
2019-03-01T01:24:57.156Z,69.20
2019-03-01T01:27:25.687Z,70.50
2019-03-01T01:29:54.126Z,69.70
2019-03-01T01:32:22.601Z,65.10
2019-03-01T01:34:51.122Z,63.30
2019-03-01T01:37:19.559Z,60.90
2019-03-01T01:39:48.008Z,62.00
2019-03-01T01:42:16.451Z,66.00
2019-03-01T01:44:44.915Z,64.60
2019-03-01T01:47:13.351Z,64.20
2019-03-01T01:49:41.809Z,64.10
2019-03-01T01:52:10.337Z,63.20
2019-03-01T01:54:38.770Z,61.90
2019-03-01T01:57:07.232Z,61.70
2019-03-01T01:59:35.679Z,60.20
2019-03-01T02:02:04.324Z,64.80
2019-03-01T02:04:32.775Z,64.30
2019-03-01T02:07:01.283Z,66.70
2019-03-01T02:09:29.814Z,64.80
2019-03-01T02:11:58.323Z,66.30
2019-03-01T02:14:26.979Z,69.30
2019-03-01T02:16:55.433Z,70.80
2019-03-01T02:19:23.885Z,70.80
2019-03-01T02:21:52.342Z,71.30
2019-03-01T02:24:20.847Z,72.30
2019-03-01T02:26:49.278Z,69.30
2019-03-01T02:29:17.740Z,70.90
2019-03-01T02:31:49.918Z,71.10
2019-03-01T02:34:18.382Z,70.00
2019-03-01T02:36:46.827Z,72.30
2019-03-01T02:39:15.276Z,71.80
2019-03-01T02:41:43.817Z,68.60
2019-03-01T02:44:12.266Z,70.90
2019-03-01T02:46:40.799Z,68.50
2019-03-01T02:49:09.332Z,67.80
2019-03-01T02:51:37.866Z,68.80
2019-03-01T02:54:06.368Z,72.20
2019-03-01T02:56:34.808Z,69.90
2019-03-01T02:59:03.267Z,71.80
2019-03-01T03:01:31.709Z,71.80
2019-03-01T03:04:19.516Z,68.90
2019-03-01T03:06:49.584Z,70.40
2019-03-01T03:09:18.028Z,70.20
2019-03-01T03:11:46.503Z,71.50
2019-03-01T03:14:15.024Z,74.80
2019-03-01T03:16:43.491Z,71.70
2019-03-01T03:19:11.927Z,70.20
2019-03-01T03:21:40.395Z,71.70
2019-03-01T03:24:08.838Z,73.40
2019-03-01T03:26:37.271Z,76.00
2019-03-01T03:29:25.071Z,74.50
2019-03-01T03:31:53.581Z,74.40
2019-03-01T03:34:22.120Z,75.30
2019-03-01T03:36:50.565Z,73.90
2019-03-01T03:39:19.649Z,71.20
2019-03-01T03:41:49.089Z,73.20
2019-03-01T03:44:17.926Z,76.70
2019-03-01T03:46:46.873Z,74.10
2019-03-01T03:49:15.298Z,74.50
2019-03-01T03:51:43.812Z,74.60
2019-03-01T03:54:12.267Z,75.60
2019-03-01T03:56:40.879Z,71.70
2019-03-01T03:59:09.425Z,73.80
2019-03-01T04:01:38.006Z,74.30
2019-03-01T04:04:06.593Z,74.10
2019-03-01T04:06:35.371Z,73.40
2019-03-01T04:09:04.848Z,74.80
2019-03-01T04:11:33.306Z,74.30
2019-03-01T04:14:01.744Z,74.00
2019-03-01T04:16:30.280Z,76.10
2019-03-01T04:18:58.740Z,75.70
2019-03-01T04:21:27.189Z,77.80
2019-03-01T04:23:55.649Z,77.10
2019-03-01T04:26:24.096Z,79.00
2019-03-01T04:28:52.586Z,79.70
2019-03-01T04:31:21.115Z,80.90
2019-03-01T04:33:49.567Z,82.90
2019-03-01T04:36:18.076Z,85.00
2019-03-01T04:38:46.547Z,84.30
2019-03-01T04:41:15.059Z,84.70
2019-03-01T04:43:43.514Z,84.70
2019-03-01T04:46:11.956Z,85.00
2019-03-01T04:48:40.418Z,84.00
2019-03-01T04:51:10.369Z,85.20
2019-03-01T04:53:38.839Z,82.40
2019-03-01T04:56:07.325Z,82.10
2019-03-01T04:58:36.622Z,79.20
2019-03-01T05:01:05.712Z,78.50
2019-03-01T05:03:34.240Z,75.40
2019-03-01T05:06:02.750Z,74.90
2019-03-01T05:08:31.283Z,75.10
2019-03-01T05:10:59.964Z,73.90
2019-03-01T05:13:28.511Z,69.70
2019-03-01T05:15:57.057Z,67.20
2019-03-01T05:18:25.558Z,59.90
2019-03-01T05:20:54.156Z,68.60
2019-03-01T05:23:22.596Z,70.40
2019-03-01T05:25:51.071Z,71.80
2019-03-01T05:28:19.528Z,75.30
2019-03-01T05:30:47.970Z,82.80
2019-03-01T05:33:16.432Z,86.50
2019-03-01T05:35:44.875Z,89.10
2019-03-01T05:38:21.457Z,90.30
2019-03-01T05:40:43.504Z,90.20
2019-03-01T05:43:11.945Z,92.00
2019-03-01T05:45:40.479Z,92.40
2019-03-01T05:48:09.219Z,92.40
2019-03-01T05:50:37.739Z,93.10
2019-03-01T05:53:06.259Z,94.00
2019-03-01T05:55:34.697Z,94.10
2019-03-01T05:58:29.092Z,93.80
2019-03-01T06:01:00.236Z,94.00
2019-03-01T06:04:03.123Z,94.30
2019-03-01T06:06:45.839Z,94.60
2019-03-01T06:09:32.222Z,95.10
2019-03-01T06:12:24.481Z,95.40
2019-03-01T06:15:07.711Z,95.00
2019-03-01T06:17:55.323Z,94.40
2019-03-01T06:20:50.872Z,94.50
2019-03-01T06:23:49.078Z,94.70
2019-03-01T06:26:44.515Z,94.80
2019-03-01T06:29:24.534Z,95.10
2019-03-01T06:32:04.647Z,94.40
2019-03-01T06:34:38.973Z,94.80
2019-03-01T06:37:19.303Z,94.50
2019-03-01T06:40:23.184Z,94.40
2019-03-01T06:43:00.426Z,94.30
2019-03-01T06:45:31.930Z,94.90
2019-03-01T06:48:00.372Z,95.20
2019-03-01T06:50:36.530Z,95.40
2019-03-01T06:53:05.184Z,95.70
2019-03-01T06:55:36.651Z,95.80
2019-03-01T06:58:07.405Z,95.90
2019-03-01T07:00:47.300Z,95.70
2019-03-01T07:03:10.444Z,95.90
2019-03-01T07:05:38.886Z,95.90
2019-03-01T07:08:07.522Z,96.20
2019-03-01T07:10:36.036Z,96.30
2019-03-01T07:13:04.491Z,96.20
2019-03-01T07:15:52.355Z,96.60
2019-03-01T07:18:20.882Z,96.60
2019-03-01T07:20:49.365Z,96.70
2019-03-01T07:23:17.825Z,96.70
2019-03-01T07:25:46.263Z,96.70
2019-03-01T07:28:14.702Z,96.90
2019-03-01T07:30:43.235Z,96.70
2019-03-01T07:33:11.668Z,96.70
2019-03-01T07:35:40.130Z,96.80
2019-03-01T07:38:08.567Z,96.70
2019-03-01T07:40:37.012Z,96.50
2019-03-01T07:43:07.591Z,96.20
2019-03-01T07:45:35.780Z,96.50
2019-03-01T07:48:04.343Z,97.00
2019-03-01T07:50:32.906Z,97.00
2019-03-01T07:53:03.733Z,96.80
2019-03-01T07:55:31.538Z,96.80
2019-03-01T07:58:00.018Z,97.40
2019-03-01T08:00:28.559Z,97.10
2019-03-01T08:02:57.010Z,97.40
2019-03-01T08:05:25.470Z,97.60
2019-03-01T08:07:56.353Z,97.30
2019-03-01T08:10:24.167Z,97.60
2019-03-01T08:12:52.668Z,97.40
2019-03-01T08:15:21.128Z,97.20
2019-03-01T08:17:49.566Z,96.20
2019-03-01T08:20:19.316Z,96.50
2019-03-01T08:22:49.277Z,96.10
2019-03-01T08:25:22.493Z,95.50
2019-03-01T08:27:50.337Z,94.70
2019-03-01T08:30:19.122Z,94.20
2019-03-01T08:32:47.670Z,94.60
2019-03-01T08:35:17.513Z,94.60
2019-03-01T08:37:45.958Z,95.20
2019-03-01T08:40:17.855Z,95.20
2019-03-01T08:42:46.364Z,94.90
2019-03-01T08:45:19.694Z,95.60
2019-03-01T08:47:48.910Z,95.80
2019-03-01T08:50:17.963Z,96.00
2019-03-01T08:52:46.756Z,96.20
2019-03-01T08:55:23.944Z,95.80
2019-03-01T08:57:52.444Z,96.40
2019-03-01T09:00:29.592Z,95.40
2019-03-01T09:03:01.031Z,94.90
2019-03-01T09:05:29.494Z,93.40
2019-03-01T09:07:57.972Z,92.40
2019-03-01T09:10:29.317Z,93.30
2019-03-01T09:12:56.611Z,92.80
2019-03-01T09:15:25.140Z,92.90
2019-03-01T09:17:53.649Z,91.60
2019-03-01T09:20:22.088Z,92.90
2019-03-01T09:23:21.203Z,92.30
2019-03-01T09:25:59.403Z,93.90
2019-03-01T09:28:27.887Z,94.90
2019-03-01T09:30:58.356Z,92.30
2019-03-01T09:33:26.579Z,91.10
2019-03-01T09:38:39.530Z,92.80
2019-03-01T09:41:06.908Z,93.80
2019-03-01T09:43:35.491Z,93.90
2019-03-01T09:46:04.203Z,94.50
2019-03-01T09:48:32.656Z,94.30
2019-03-01T09:51:01.100Z,94.70
2019-03-01T09:53:30.692Z,94.00
2019-03-01T09:56:00.172Z,92.50
2019-03-01T09:58:28.835Z,92.80
2019-03-01T10:01:11.943Z,93.40
2019-03-01T10:03:59.731Z,94.30
2019-03-01T10:06:37.653Z,92.00
2019-03-01T10:08:58.587Z,88.00
2019-03-01T10:11:46.473Z,92.10
2019-03-01T10:14:14.984Z,91.30
2019-03-01T10:16:43.495Z,91.40
2019-03-01T10:19:11.958Z,92.00
2019-03-01T10:21:40.446Z,93.20
2019-03-01T10:24:09.096Z,93.50
2019-03-01T10:26:37.581Z,93.50
2019-03-01T10:29:06.107Z,93.80
2019-03-01T10:31:34.620Z,94.00
2019-03-01T10:34:03.097Z,94.40
2019-03-01T10:36:31.530Z,94.70
2019-03-01T10:38:59.969Z,93.60
2019-03-01T10:41:28.498Z,93.70
2019-03-01T10:43:57.010Z,94.90
2019-03-01T10:46:25.544Z,94.80
2019-03-01T10:48:53.990Z,94.90
2019-03-01T10:51:22.448Z,95.20
2019-03-01T10:53:50.894Z,94.40
2019-03-01T10:56:19.350Z,94.10
2019-03-01T10:58:47.793Z,94.10
2019-03-01T11:01:16.245Z,93.40
2019-03-01T11:03:44.739Z,93.40
2019-03-01T11:06:13.260Z,93.70
2019-03-01T11:09:01.147Z,94.40
2019-03-01T11:11:48.992Z,93.90
2019-03-01T11:14:17.462Z,94.00
2019-03-01T11:16:45.984Z,94.10
2019-03-01T11:19:14.504Z,94.50
2019-03-01T11:21:42.964Z,95.00
2019-03-01T11:24:30.740Z,95.10
2019-03-01T11:26:59.337Z,95.30
2019-03-01T11:29:27.910Z,95.10
2019-03-01T11:31:56.379Z,94.50
2019-03-01T11:34:24.959Z,94.40
2019-03-01T11:36:53.537Z,94.00
2019-03-01T11:39:22.325Z,93.00
2019-03-01T11:41:50.834Z,94.20
2019-03-01T11:44:19.291Z,92.70
2019-03-01T11:46:47.811Z,92.60
2019-03-01T11:49:16.310Z,93.00
2019-03-01T11:52:04.207Z,92.60
2019-03-01T11:54:32.671Z,92.70
2019-03-01T11:57:01.120Z,93.30
2019-03-01T11:59:29.611Z,93.10
2019-03-01T12:02:17.411Z,92.60
2019-03-01T12:04:45.864Z,92.70
2019-03-01T12:07:14.479Z,92.50
2019-03-01T12:09:42.947Z,92.70
2019-03-01T12:12:11.561Z,92.80
2019-03-01T12:14:40.066Z,91.40
2019-03-01T12:17:08.768Z,91.50
2019-03-01T12:19:37.216Z,92.30
2019-03-01T12:22:05.809Z,92.00
2019-03-01T12:24:34.881Z,91.90
2019-03-01T12:27:03.902Z,92.80
2019-03-01T12:29:32.486Z,92.40
2019-03-01T12:32:00.931Z,92.40
2019-03-01T12:34:29.388Z,94.20
2019-03-01T12:36:58.001Z,94.40
2019-03-01T12:39:26.470Z,93.80
2019-03-01T12:41:55.211Z,93.70
2019-03-01T12:44:23.716Z,93.10
2019-03-01T12:46:52.179Z,93.90
2019-03-01T12:49:20.630Z,91.70
2019-03-01T12:51:49.162Z,91.10
2019-03-01T12:54:17.979Z,91.20
2019-03-01T12:56:46.576Z,90.20
2019-03-01T12:59:15.082Z,90.00
2019-03-01T13:01:43.743Z,90.60
2019-03-01T13:04:12.270Z,90.70
2019-03-01T13:06:40.711Z,90.70
2019-03-01T13:09:14.919Z,90.70
2019-03-01T13:11:43.641Z,90.30
2019-03-01T13:14:12.131Z,90.50
2019-03-01T13:16:40.598Z,90.50
2019-03-01T13:19:09.116Z,90.90
2019-03-01T13:21:37.645Z,90.60
2019-03-01T13:24:06.097Z,90.70
2019-03-01T13:26:37.656Z,90.90
2019-03-01T13:29:04.792Z,90.80
2019-03-01T13:31:33.227Z,90.20
2019-03-01T13:34:01.692Z,88.40
2019-03-01T13:36:30.128Z,88.80
2019-03-01T13:38:58.562Z,89.00
2019-03-01T13:41:27.026Z,90.90
2019-03-01T13:43:55.471Z,91.50
2019-03-01T13:46:26.476Z,91.80
2019-03-01T13:48:54.926Z,91.50
2019-03-01T13:51:23.458Z,90.50
2019-03-01T13:53:51.915Z,79.00
2019-03-01T13:56:20.371Z,82.50
2019-03-01T13:58:48.847Z,80.60
2019-03-01T14:01:17.358Z,80.20
2019-03-01T14:03:45.803Z,73.70
2019-03-01T14:06:15.860Z,68.20
2019-03-01T14:09:05.292Z,72.30
2019-03-01T14:11:33.750Z,73.00
2019-03-01T14:14:26.548Z,67.40
2019-03-01T14:16:51.702Z,50.20
2019-03-01T14:19:42.253Z,53.70
2019-03-01T14:22:13.155Z,52.80
2019-03-01T14:24:39.890Z,49.90
2019-03-01T14:27:08.328Z,62.80
2019-03-01T14:29:36.778Z,63.60
2019-03-01T14:32:05.286Z,57.70
2019-03-01T14:34:34.009Z,63.40
2019-03-01T14:37:21.988Z,64.50
2019-03-01T14:39:50.511Z,65.40
2019-03-01T14:42:18.944Z,64.00
2019-03-01T14:44:47.418Z,66.60
2019-03-01T14:47:20.703Z,68.00
2019-03-01T14:49:49.309Z,70.90
2019-03-01T14:52:37.181Z,71.30
2019-03-01T14:55:27.979Z,75.20
2019-03-01T14:58:11.271Z,70.60
2019-03-01T15:00:54.811Z,75.60
2019-03-01T15:03:42.607Z,72.10
2019-03-01T15:06:30.474Z,66.70
2019-03-01T15:08:59.014Z,66.80
2019-03-01T15:11:27.491Z,65.60
2019-03-01T15:13:56.272Z,64.60
2019-03-01T15:16:24.739Z,70.50
2019-03-01T15:18:53.333Z,68.00
2019-03-01T15:21:21.972Z,73.10
2019-03-01T15:23:50.432Z,75.20
2019-03-01T15:26:18.937Z,75.00
2019-03-01T15:28:53.956Z,76.60
2019-03-01T15:31:19.955Z,75.60
2019-03-01T15:33:48.455Z,74.60
2019-03-01T15:36:18.020Z,73.70
2019-03-01T15:39:08.310Z,71.70
2019-03-01T15:41:55.835Z,72.90
2019-03-01T15:44:24.304Z,75.40
2019-03-01T15:46:52.842Z,79.80
2019-03-01T15:49:23.666Z,79.50
2019-03-01T15:51:51.729Z,80.80
2019-03-01T15:54:20.187Z,77.30
2019-03-01T15:56:48.630Z,77.00
2019-03-01T15:59:17.158Z,75.10
2019-03-01T16:01:47.099Z,71.20
2019-03-01T16:04:15.937Z,72.10
2019-03-01T16:07:03.882Z,71.00
2019-03-01T16:09:52.188Z,71.70
2019-03-01T16:12:20.672Z,72.10
2019-03-01T16:15:10.107Z,71.40
2019-03-01T16:17:38.555Z,74.20
2019-03-01T16:20:28.538Z,77.50
2019-03-01T16:22:57.712Z,78.60
2019-03-01T16:25:26.155Z,79.40
2019-03-01T16:27:55.140Z,78.50
2019-03-01T16:30:23.675Z,76.00
2019-03-01T16:32:52.130Z,78.00
2019-03-01T16:35:21.141Z,80.60
2019-03-01T16:37:51.330Z,81.20
2019-03-01T16:40:19.842Z,80.90
2019-03-01T16:42:52.993Z,79.70
2019-03-01T16:45:39.406Z,75.20
2019-03-01T16:48:07.879Z,73.40
2019-03-01T16:50:36.393Z,73.40
2019-03-01T16:53:24.585Z,68.80
2019-03-01T16:55:53.075Z,69.80
2019-03-01T16:58:24.479Z,75.30
2019-03-01T17:00:53.611Z,76.10
2019-03-01T17:03:21.846Z,76.90
2019-03-01T17:05:50.324Z,80.90
2019-03-01T17:08:18.835Z,82.00
2019-03-01T17:10:47.301Z,82.50
2019-03-01T17:13:15.739Z,81.80
2019-03-01T17:15:45.572Z,83.60
2019-03-01T17:18:14.454Z,84.20
2019-03-01T17:20:42.889Z,83.20
2019-03-01T17:23:11.469Z,84.50
2019-03-01T17:25:39.958Z,82.90
2019-03-01T17:28:08.419Z,87.50
2019-03-01T17:30:37.024Z,89.20
2019-03-01T17:33:25.209Z,88.70
2019-03-01T17:35:53.699Z,90.10
2019-03-01T17:38:22.162Z,90.90
2019-03-01T17:41:10.916Z,90.70
2019-03-01T17:43:39.600Z,90.30
2019-03-01T17:46:08.043Z,89.20
2019-03-01T17:48:36.497Z,89.90
2019-03-01T17:51:04.954Z,89.80
2019-03-01T17:53:33.483Z,89.80
2019-03-01T17:56:02.145Z,90.00
2019-03-01T17:58:31.094Z,89.50
2019-03-01T18:01:02.877Z,88.50
2019-03-01T18:03:29.776Z,87.80
2019-03-01T18:05:58.282Z,89.10
2019-03-01T18:08:26.878Z,89.50
2019-03-01T18:10:55.389Z,89.80
2019-03-01T18:13:23.899Z,88.80
2019-03-01T18:15:52.351Z,88.30
2019-03-01T18:18:20.858Z,87.50
2019-03-01T18:20:49.319Z,87.20
2019-03-01T18:23:17.800Z,88.80
2019-03-01T18:25:46.376Z,89.30
2019-03-01T18:28:14.862Z,85.80
2019-03-01T18:30:43.323Z,89.30
2019-03-01T18:33:11.843Z,90.10
2019-03-01T18:35:40.318Z,90.60
2019-03-01T18:38:08.823Z,91.50
2019-03-01T18:40:37.278Z,92.40
2019-03-01T18:43:25.263Z,92.20
2019-03-01T18:45:53.773Z,91.90
2019-03-01T18:48:22.312Z,91.90
2019-03-01T18:50:50.999Z,91.00
2019-03-01T18:53:19.503Z,90.90
2019-03-01T18:55:49.601Z,90.90
2019-03-01T18:58:37.512Z,89.70
2019-03-01T19:01:07.729Z,89.00
2019-03-01T19:03:40.220Z,89.30
2019-03-01T19:06:07.743Z,89.60
2019-03-01T19:08:39.358Z,89.10
2019-03-01T19:11:06.792Z,88.50
2019-03-01T19:13:35.252Z,89.90
2019-03-01T19:16:03.767Z,89.80
2019-03-01T19:18:37.089Z,89.70
2019-03-01T19:21:06.379Z,89.90
2019-03-01T19:23:34.818Z,89.60
2019-03-01T19:26:03.297Z,89.00
2019-03-01T19:28:31.814Z,89.50
2019-03-01T19:31:00.351Z,88.20
2019-03-01T19:33:28.891Z,87.80
2019-03-01T19:36:00.574Z,85.20
2019-03-01T19:38:27.798Z,83.30
2019-03-01T19:40:56.494Z,82.70
2019-03-01T19:43:25.270Z,81.80
2019-03-01T19:45:53.735Z,81.40
2019-03-01T19:48:22.205Z,81.60
2019-03-01T19:50:51.044Z,82.20
2019-03-01T19:53:21.653Z,80.90
2019-03-01T19:55:49.778Z,79.40
2019-03-01T19:58:18.486Z,79.70
2019-03-01T20:00:46.994Z,80.30
2019-03-01T20:03:15.454Z,80.50
2019-03-01T20:05:43.898Z,80.50
2019-03-01T20:08:12.481Z,80.20
2019-03-01T20:10:41.055Z,78.50
2019-03-01T20:13:09.574Z,79.20
2019-03-01T20:15:38.098Z,79.10
2019-03-01T20:18:09.569Z,80.00
2019-03-01T20:20:36.941Z,80.70
2019-03-01T20:23:05.448Z,79.70
2019-03-01T20:25:53.276Z,79.30
2019-03-01T20:28:21.722Z,78.00
2019-03-01T20:31:09.592Z,74.10
2019-03-01T20:33:38.097Z,74.70
2019-03-01T20:36:06.552Z,72.90
2019-03-01T20:38:37.011Z,73.00
2019-03-01T20:41:05.247Z,71.60
2019-03-01T20:43:53.056Z,70.70
2019-03-01T20:46:21.501Z,70.10
2019-03-01T20:48:49.947Z,73.20
2019-03-01T20:51:28.340Z,72.70
2019-03-01T20:53:57.632Z,74.30
2019-03-01T20:56:26.094Z,76.40
2019-03-01T20:58:54.539Z,76.70
2019-03-01T21:01:22.987Z,77.30
2019-03-01T21:03:51.714Z,80.00
2019-03-01T21:06:20.163Z,81.10
2019-03-01T21:08:48.631Z,80.10
2019-03-01T21:11:17.070Z,79.70
2019-03-01T21:13:45.771Z,79.00
2019-03-01T21:16:35.371Z,80.90
2019-03-01T21:19:23.173Z,81.00
2019-03-01T21:22:10.956Z,81.20
2019-03-01T21:24:39.426Z,80.00
2019-03-01T21:27:07.869Z,80.80
2019-03-01T21:29:36.386Z,81.90
2019-03-01T21:32:05.015Z,80.80
2019-03-01T21:34:34.888Z,79.40
2019-03-01T21:37:03.986Z,77.90
2019-03-01T21:39:32.498Z,76.80
2019-03-01T21:42:21.183Z,76.40
2019-03-01T21:44:49.840Z,73.60
2019-03-01T21:47:18.362Z,76.20
2019-03-01T21:49:46.829Z,75.80
2019-03-01T21:52:15.274Z,77.00
2019-03-01T21:54:43.739Z,71.60
2019-03-01T21:57:12.186Z,71.30
2019-03-01T21:59:40.651Z,71.10
2019-03-01T22:02:09.111Z,68.90
2019-03-01T22:04:56.843Z,68.70
2019-03-01T22:07:44.696Z,72.30
2019-03-01T22:10:35.590Z,71.70
2019-03-01T22:13:22.075Z,66.70
2019-03-01T22:15:50.544Z,68.20
2019-03-01T22:18:20.379Z,69.70
2019-03-01T22:21:08.499Z,68.80
2019-03-01T22:23:36.989Z,67.60
2019-03-01T22:26:05.530Z,65.90
2019-03-01T22:28:36.157Z,68.20
2019-03-01T22:31:04.150Z,68.30
2019-03-01T22:33:32.610Z,66.90
2019-03-01T22:36:01.054Z,68.90
2019-03-01T22:38:30.098Z,69.80
2019-03-01T22:41:00.540Z,65.70
2019-03-01T22:43:28.922Z,65.30
2019-03-01T22:45:57.370Z,67.90
2019-03-01T22:48:49.022Z,70.20
2019-03-01T22:51:34.820Z,67.90
2019-03-01T22:54:03.292Z,64.70
2019-03-01T22:56:31.734Z,65.40
2019-03-01T22:59:01.146Z,65.40
2019-03-01T23:01:32.775Z,65.60
2019-03-01T23:04:02.054Z,64.40
2019-03-01T23:06:31.723Z,62.40
2019-03-01T23:09:00.245Z,63.50
2019-03-01T23:11:32.333Z,63.50
2019-03-01T23:13:59.085Z,65.00
2019-03-01T23:16:27.551Z,64.30
2019-03-01T23:18:56.907Z,63.90
2019-03-01T23:21:25.496Z,64.90
2019-03-01T23:23:55.900Z,63.90
2019-03-01T23:26:24.122Z,63.40
2019-03-01T23:28:52.651Z,63.40
2019-03-01T23:31:21.085Z,63.40
2019-03-01T23:33:49.685Z,59.30
2019-03-01T23:36:18.266Z,62.80
2019-03-01T23:38:50.070Z,61.00
2019-03-01T23:41:17.025Z,64.10
2019-03-01T23:43:45.462Z,64.10
2019-03-01T23:46:14.000Z,63.40
2019-03-01T23:48:45.512Z,64.20
2019-03-01T23:51:12.708Z,64.00
2019-03-01T23:53:41.226Z,66.30
2019-03-01T23:56:09.668Z,62.00
2019-03-01T23:58:38.133Z,61.90
